Airfield :
LOGIN :

Register | Disclaimer

   EN    FR    IT 

 










Legend :    VFR   Marginal VFR   IFR   Intensive IFR   Very Intensive IFR
Visi :
Ceiling :
>= 8 km
>= 3000ft
5 to 8 km
1000 to 3000 ft
1500m to 5 km
500 to 1000 ft
800 to 1500m
200 to 500 ft
< 800m
< 200 ft
Symbols :   Thunderstorms  Fog  Heavy snow  Heavy precipitations  Wind > 20 kt
SIGMETs :     Misc.  Thunderstorms  Icing  Turbulence  Mountain Waves  Volcanic Ashes







- Airport Elevation : 479 ft
- IATA code : DOL
- Download approach charts


LFRG - Deauville

CURRENT METAR :
  • 221230Z AUTO 31006KT 230V360 CAVOK 18/03 Q1021 NOSIG

EXPIRED METARs :
  • 221200Z AUTO 29006KT 230V340 CAVOK 18/04 Q1021 NOSIG
  • 221130Z AUTO 29006KT 230V350 CAVOK 18/02 Q1021 NOSIG
  • 221100Z AUTO 30007KT 250V350 CAVOK 18/02 Q1021 NOSIG
  • 221030Z AUTO 24005KT 180V350 CAVOK 18/05 Q1021 NOSIG
  • 221000Z AUTO 24005KT 130V290 CAVOK 17/07 Q1021 NOSIG

TAF TAF LFRG
Valid from the 22 at 12:00 until the 22 at 21:00 UTC


221100Z 2212/2221 30007KT CAVOK
BECMG 2216/2218 VRB03KT
ATIS : +33 2 31 65 65 36
No reported NOTAMs for that airfield.



MET'MAP, your aeronautical weather chart ! - Copyright ORBIFLY December 2007 - Disclaimer

ORBIFLY MET'MAP TEAM :

Programming & Development : Alexandra Zaïnal
Concept & Development : Baudouin d'Aumeries
Co-Development & Prog : Marc-Olivier Méhu
Technical & hardware support : Manuel Goepfert

Contact : metmap@orbifly.com




SOURCES & CREDITS :

   NOAA